createdAt,value
2024-04-23T00:03:23.426Z,8.70
2024-04-23T00:06:11.331Z,8.50
2024-04-23T00:08:59.636Z,8.20
2024-04-23T00:11:47.553Z,8.20
2024-04-23T00:14:35.826Z,8.90
2024-04-23T00:17:23.695Z,8.40
2024-04-23T00:20:11.614Z,7.50
2024-04-23T00:22:59.314Z,8.60
2024-04-23T00:25:47.233Z,9.50
2024-04-23T00:28:35.043Z,8.40
2024-04-23T00:31:23.719Z,8.10
2024-04-23T00:34:11.695Z,9.20
2024-04-23T00:37:00.821Z,9.50
2024-04-23T00:39:49.128Z,8.60
2024-04-23T00:42:36.840Z,8.50
2024-04-23T00:45:35.148Z,7.80
2024-04-23T00:48:22.664Z,8.10
2024-04-23T00:51:10.413Z,8.80
2024-04-23T00:53:59.218Z,8.30
2024-04-23T00:56:47.219Z,9.00
2024-04-23T00:59:35.757Z,9.20
2024-04-23T01:02:23.928Z,9.90
2024-04-23T01:05:12.117Z,10.00
2024-04-23T01:08:00.148Z,8.90
2024-04-23T01:10:47.985Z,8.80
2024-04-23T01:13:36.031Z,8.40
2024-04-23T01:16:29.773Z,10.00
2024-04-23T01:19:36.280Z,8.20
2024-04-23T01:22:32.175Z,9.30
2024-04-23T01:25:23.460Z,8.00
2024-04-23T01:28:15.297Z,8.10
2024-04-23T01:31:08.666Z,9.20
2024-04-23T01:33:58.204Z,8.80
2024-04-23T01:36:45.689Z,8.60
2024-04-23T01:39:34.824Z,10.00
2024-04-23T01:42:23.777Z,9.10
2024-04-23T01:45:16.616Z,8.80
2024-04-23T01:48:07.354Z,9.10
2024-04-23T01:50:55.398Z,8.70
2024-04-23T01:53:43.112Z,8.80
2024-04-23T01:56:30.774Z,8.40
2024-04-23T01:59:18.692Z,8.30
2024-04-23T02:02:07.234Z,7.80
2024-04-23T02:04:55.721Z,8.30
2024-04-23T02:07:44.796Z,7.60
2024-04-23T02:10:32.702Z,8.50
2024-04-23T02:13:20.841Z,8.20
2024-04-23T02:16:08.903Z,8.80
2024-04-23T02:18:56.816Z,9.30
2024-04-23T02:21:44.733Z,9.10
2024-04-23T02:24:32.645Z,9.50
2024-04-23T02:27:20.631Z,9.30
2024-04-23T02:30:08.825Z,9.20
2024-04-23T02:32:56.916Z,9.80
2024-04-23T02:35:44.561Z,9.80
2024-04-23T02:38:32.831Z,8.90
2024-04-23T02:41:20.475Z,9.20
2024-04-23T02:44:08.317Z,10.60
2024-04-23T02:46:56.230Z,9.20
2024-04-23T02:49:44.367Z,9.00
2024-04-23T02:52:33.243Z,8.50
2024-04-23T02:55:22.116Z,9.20
2024-04-23T02:58:10.038Z,9.20
2024-04-23T03:00:57.721Z,8.90
2024-04-23T03:03:46.387Z,8.80
2024-04-23T03:06:34.159Z,9.00
2024-04-23T03:09:21.890Z,8.30
2024-04-23T03:12:10.036Z,8.40
2024-04-23T03:14:58.450Z,10.40
2024-04-23T03:17:46.718Z,9.70
2024-04-23T03:20:35.354Z,8.80
2024-04-23T03:23:23.372Z,8.80
2024-04-23T03:26:11.248Z,10.20
2024-04-23T03:28:58.928Z,9.90
2024-04-23T03:31:47.711Z,9.10
2024-04-23T03:34:35.706Z,10.00
2024-04-23T03:37:23.382Z,9.40
2024-04-23T03:40:11.383Z,10.70
2024-04-23T03:42:58.885Z,10.50
2024-04-23T03:45:46.755Z,10.30
2024-04-23T03:48:34.920Z,8.90
2024-04-23T03:51:22.809Z,10.40
2024-04-23T03:54:11.075Z,10.10
2024-04-23T03:56:59.253Z,10.80
2024-04-23T03:59:47.254Z,10.10
2024-04-23T04:02:53.590Z,10.50
2024-04-23T04:06:00.549Z,11.10
2024-04-23T04:08:48.826Z,11.70
2024-04-23T04:11:38.357Z,12.10
2024-04-23T04:14:26.308Z,11.50
2024-04-23T04:17:14.215Z,12.10
2024-04-23T04:20:02.093Z,11.40
2024-04-23T04:22:49.924Z,11.00
2024-04-23T04:25:37.954Z,11.10
2024-04-23T04:28:25.864Z,10.70
2024-04-23T04:31:13.901Z,11.50
2024-04-23T04:34:01.668Z,11.10
2024-04-23T04:36:49.452Z,11.20
2024-04-23T04:39:38.804Z,10.70
2024-04-23T04:42:26.589Z,12.10
2024-04-23T04:45:14.230Z,10.60
2024-04-23T04:48:02.124Z,11.00
2024-04-23T04:50:50.325Z,11.00
2024-04-23T04:53:38.277Z,10.50
2024-04-23T04:56:28.932Z,10.60
2024-04-23T04:59:16.900Z,9.30
2024-04-23T05:02:04.916Z,9.00
2024-04-23T05:04:55.440Z,10.10
2024-04-23T05:07:44.750Z,10.90
2024-04-23T05:10:32.441Z,11.50
2024-04-23T05:13:20.142Z,10.50
2024-04-23T05:16:08.330Z,9.30
2024-04-23T05:18:56.257Z,10.10
2024-04-23T05:21:44.005Z,9.40
2024-04-23T05:24:32.050Z,8.60
2024-04-23T05:27:19.986Z,9.20
2024-04-23T05:30:08.835Z,8.80
2024-04-23T05:32:56.563Z,8.40
2024-04-23T05:35:44.728Z,7.50
2024-04-23T05:38:32.782Z,7.10
2024-04-23T05:41:20.673Z,7.60
2024-04-23T05:44:08.428Z,7.40
2024-04-23T05:46:56.237Z,7.70
2024-04-23T05:50:41.151Z,7.40
2024-04-23T05:54:25.484Z,7.60
2024-04-23T05:57:13.150Z,6.30
2024-04-23T06:00:01.095Z,6.40
2024-04-23T06:02:48.989Z,7.30
2024-04-23T06:05:37.119Z,6.20
2024-04-23T06:08:27.705Z,6.70
2024-04-23T06:11:16.164Z,6.90
2024-04-23T06:14:10.350Z,6.60
2024-04-23T06:17:28.727Z,5.70
2024-04-23T06:20:24.090Z,5.70
2024-04-23T06:23:28.903Z,4.90
2024-04-23T06:26:17.025Z,3.90
2024-04-23T06:29:04.435Z,6.10
2024-04-23T06:31:52.549Z,6.50
2024-04-23T06:34:41.509Z,5.70
2024-04-23T06:37:29.628Z,5.70
2024-04-23T06:40:17.916Z,6.90
2024-04-23T06:43:06.007Z,4.80
2024-04-23T06:45:54.662Z,5.00
2024-04-23T06:48:42.331Z,4.80
2024-04-23T06:51:30.219Z,5.40
2024-04-23T06:54:18.208Z,4.70
2024-04-23T06:57:08.468Z,4.30
2024-04-23T06:59:56.520Z,4.60
2024-04-23T07:02:44.889Z,3.80
2024-04-23T07:05:32.987Z,3.60
2024-04-23T07:08:20.716Z,4.20
2024-04-23T07:11:09.955Z,3.40
2024-04-23T07:13:58.343Z,3.10
2024-04-23T07:16:47.516Z,3.40
2024-04-23T07:19:35.469Z,3.10
2024-04-23T07:22:23.335Z,2.60
2024-04-23T07:25:11.095Z,3.30
2024-04-23T07:27:59.249Z,3.10
2024-04-23T07:30:50.006Z,2.80
2024-04-23T07:33:38.025Z,3.10
2024-04-23T07:36:26.394Z,3.00
2024-04-23T07:39:14.937Z,2.50
2024-04-23T07:42:03.476Z,2.30
2024-04-23T07:44:51.841Z,2.50
2024-04-23T07:47:40.253Z,2.80
2024-04-23T07:50:29.415Z,2.50
2024-04-23T07:53:17.316Z,3.00
2024-04-23T07:56:05.770Z,3.20
2024-04-23T07:58:53.665Z,3.10
2024-04-23T08:01:41.742Z,3.20
2024-04-23T08:04:30.112Z,2.30
2024-04-23T08:07:17.905Z,3.20
2024-04-23T08:10:06.374Z,2.50
2024-04-23T08:12:55.440Z,3.10
2024-04-23T08:15:43.150Z,3.00
2024-04-23T08:18:30.838Z,2.50
2024-04-23T08:21:19.035Z,3.00
2024-04-23T08:24:08.209Z,2.60
2024-04-23T08:26:55.934Z,3.00
2024-04-23T08:29:43.690Z,2.70
2024-04-23T08:32:31.930Z,3.00
2024-04-23T08:35:19.983Z,3.10
2024-04-23T08:38:07.733Z,2.90
2024-04-23T08:40:56.150Z,3.20
2024-04-23T08:44:09.662Z,3.60
2024-04-23T08:46:57.962Z,3.30
2024-04-23T08:49:46.872Z,3.10
2024-04-23T08:52:34.602Z,3.10
2024-04-23T08:55:23.897Z,3.30
2024-04-23T08:58:14.201Z,3.60
2024-04-23T09:01:03.542Z,3.90
2024-04-23T09:03:56.108Z,3.20
2024-04-23T09:06:44.608Z,4.90
2024-04-23T09:09:32.993Z,4.20
2024-04-23T09:12:21.056Z,3.80
2024-04-23T09:15:09.406Z,4.70
2024-04-23T09:17:58.894Z,4.00
2024-04-23T09:20:47.125Z,3.90
2024-04-23T09:23:35.097Z,4.30
2024-04-23T09:26:25.916Z,4.10
2024-04-23T09:29:14.517Z,4.80
2024-04-23T09:32:03.660Z,4.10
2024-04-23T09:34:56.176Z,4.40
2024-04-23T09:37:50.994Z,3.70
2024-04-23T09:40:42.933Z,3.50
2024-04-23T09:43:31.674Z,3.40
2024-04-23T09:46:19.989Z,3.50
2024-04-23T09:49:07.741Z,4.50
2024-04-23T09:51:56.804Z,3.70
2024-04-23T09:54:45.171Z,5.00
2024-04-23T09:57:35.742Z,4.20
2024-04-23T10:03:16.958Z,3.40
2024-04-23T10:06:08.350Z,4.40
2024-04-23T10:09:07.066Z,4.50
2024-04-23T10:12:07.349Z,4.10
2024-04-23T10:15:09.886Z,3.30
2024-04-23T10:18:06.629Z,3.40
2024-04-23T10:20:56.449Z,4.70
2024-04-23T10:23:45.083Z,4.40
2024-04-23T10:26:34.138Z,4.60
2024-04-23T10:29:23.086Z,4.20
2024-04-23T10:32:12.983Z,3.70
2024-04-23T10:35:04.460Z,5.00
2024-04-23T10:37:54.514Z,4.30
2024-04-23T10:40:52.283Z,4.40
2024-04-23T10:43:47.062Z,4.30
2024-04-23T10:46:35.639Z,4.20
2024-04-23T10:49:27.104Z,3.40
2024-04-23T10:52:18.992Z,4.50
2024-04-23T10:55:14.681Z,4.50
2024-04-23T10:58:03.327Z,4.00
2024-04-23T11:01:01.097Z,4.30
2024-04-23T11:03:56.850Z,4.00
2024-04-23T11:06:45.073Z,3.90
2024-04-23T11:09:43.694Z,4.90
2024-04-23T11:12:31.416Z,3.80
2024-04-23T11:15:19.777Z,5.60
2024-04-23T11:18:20.145Z,4.20
2024-04-23T11:21:10.207Z,3.60
2024-04-23T11:24:04.986Z,4.40
2024-04-23T11:26:53.210Z,4.50
2024-04-23T11:29:46.342Z,5.00
2024-04-23T11:32:34.385Z,4.50
2024-04-23T11:35:26.153Z,3.90
2024-04-23T11:38:13.696Z,3.90
2024-04-23T11:41:18.766Z,5.30
2024-04-23T11:44:07.372Z,7.40
2024-04-23T11:46:56.040Z,6.50
2024-04-23T11:49:43.656Z,4.00
2024-04-23T11:52:33.243Z,4.20
2024-04-23T11:55:21.097Z,4.60
2024-04-23T11:58:09.312Z,4.70
2024-04-23T12:00:57.590Z,4.90
2024-04-23T12:03:45.564Z,4.40
2024-04-23T12:06:33.925Z,4.10
2024-04-23T12:09:23.451Z,3.70
2024-04-23T12:12:11.780Z,3.70
2024-04-23T12:14:59.298Z,3.80
2024-04-23T12:17:47.194Z,3.90
2024-04-23T12:20:38.294Z,4.40
2024-04-23T12:23:26.522Z,4.00
2024-04-23T12:26:19.411Z,3.60
2024-04-23T12:29:07.557Z,3.70
2024-04-23T12:32:02.712Z,4.20
2024-04-23T12:34:57.757Z,3.90
2024-04-23T12:37:45.901Z,3.70
2024-04-23T12:40:35.354Z,4.60
2024-04-23T12:43:29.146Z,3.90
2024-04-23T12:46:18.826Z,3.90
2024-04-23T12:49:07.127Z,3.80
2024-04-23T12:51:55.274Z,3.70
2024-04-23T12:54:43.629Z,3.90
2024-04-23T12:57:32.224Z,3.10
2024-04-23T13:00:20.239Z,4.00
2024-04-23T13:03:08.402Z,3.90
2024-04-23T13:05:57.703Z,4.10
2024-04-23T13:08:47.231Z,4.50
2024-04-23T13:11:35.421Z,4.80
2024-04-23T13:14:23.240Z,4.40
2024-04-23T13:17:11.058Z,3.30
2024-04-23T13:20:01.287Z,3.70
2024-04-23T13:22:50.408Z,3.60
2024-04-23T13:25:40.334Z,3.50
2024-04-23T13:28:28.337Z,3.90
2024-04-23T13:31:15.925Z,3.80
2024-04-23T13:34:03.708Z,3.30
2024-04-23T13:36:51.779Z,3.70
2024-04-23T13:39:40.145Z,3.70
2024-04-23T13:42:28.068Z,4.10
2024-04-23T13:45:15.667Z,4.70
2024-04-23T13:48:04.026Z,3.70
2024-04-23T13:50:52.502Z,3.60
2024-04-23T13:53:39.995Z,4.20
2024-04-23T13:56:27.739Z,4.00
2024-04-23T13:59:18.821Z,4.30
2024-04-23T14:02:06.613Z,4.30
2024-04-23T14:04:56.796Z,4.30
2024-04-23T14:07:44.837Z,4.90
2024-04-23T14:10:33.312Z,4.60
2024-04-23T14:13:20.932Z,4.20
2024-04-23T14:16:13.130Z,4.50
2024-04-23T14:19:00.985Z,4.40
2024-04-23T14:21:49.958Z,4.50
2024-04-23T14:24:38.246Z,5.10
2024-04-23T14:27:26.127Z,4.20
2024-04-23T14:30:14.828Z,4.70
2024-04-23T14:33:03.053Z,4.50
2024-04-23T14:35:50.805Z,4.40
2024-04-23T14:38:38.747Z,4.90
2024-04-23T14:41:26.558Z,4.60
2024-04-23T14:44:15.037Z,4.70
2024-04-23T14:47:04.147Z,4.40
2024-04-23T14:49:51.899Z,4.70
2024-04-23T14:52:40.209Z,4.80
2024-04-23T14:55:28.297Z,5.50
2024-04-23T14:58:15.824Z,4.40
2024-04-23T15:01:13.934Z,5.40
2024-04-23T15:04:04.862Z,4.60
2024-04-23T15:09:42.121Z,5.60
2024-04-23T15:12:30.377Z,5.10
2024-04-23T15:15:18.141Z,5.40
2024-04-23T15:18:06.268Z,4.60
2024-04-23T15:20:54.421Z,4.90
2024-04-23T15:23:42.297Z,6.00
2024-04-23T15:26:30.109Z,4.30
2024-04-23T15:29:18.062Z,4.10
2024-04-23T15:32:07.082Z,3.90
2024-04-23T15:34:55.139Z,5.30
2024-04-23T15:37:42.975Z,5.60
2024-04-23T15:40:31.036Z,4.20
2024-04-23T15:43:18.928Z,4.70
2024-04-23T15:46:16.717Z,4.20
2024-04-23T15:49:04.378Z,4.30
2024-04-23T15:51:52.070Z,4.40
2024-04-23T15:54:40.336Z,4.80
2024-04-23T15:57:28.179Z,5.10
2024-04-23T16:00:16.702Z,4.80
2024-04-23T16:03:05.478Z,4.60
2024-04-23T16:05:53.196Z,5.10
2024-04-23T16:08:41.355Z,5.50
2024-04-23T16:11:29.076Z,4.20
2024-04-23T16:14:16.945Z,5.00
2024-04-23T16:17:04.882Z,4.50
2024-04-23T16:19:52.986Z,4.60
2024-04-23T16:22:41.162Z,4.70
2024-04-23T16:25:28.905Z,3.90
2024-04-23T16:28:17.952Z,4.50
2024-04-23T16:31:08.113Z,4.20
2024-04-23T16:33:55.662Z,4.80
2024-04-23T16:36:43.741Z,4.60
2024-04-23T16:39:31.442Z,5.30
2024-04-23T16:42:19.284Z,5.50
2024-04-23T16:45:07.345Z,6.00
2024-04-23T16:47:55.611Z,4.90
2024-04-23T16:50:51.426Z,4.70
2024-04-23T16:53:40.145Z,4.80
2024-04-23T16:56:28.502Z,4.50
2024-04-23T16:59:18.267Z,4.80
2024-04-23T17:02:06.695Z,5.30
2024-04-23T17:04:57.170Z,4.20
2024-04-23T17:07:46.757Z,4.40
2024-04-23T17:10:34.761Z,5.10
2024-04-23T17:13:22.425Z,4.80
2024-04-23T17:16:15.360Z,4.70
2024-04-23T17:19:03.318Z,4.50
2024-04-23T17:21:51.964Z,4.40
2024-04-23T17:24:40.273Z,4.30
2024-04-23T17:27:28.022Z,4.80
2024-04-23T17:30:16.818Z,4.70
2024-04-23T17:33:06.587Z,5.00
2024-04-23T17:35:59.008Z,5.80
2024-04-23T17:38:50.118Z,5.90
2024-04-23T17:41:42.391Z,4.80
2024-04-23T17:44:30.550Z,4.90
2024-04-23T17:47:18.954Z,5.80
2024-04-23T17:50:09.940Z,5.70
2024-04-23T17:52:58.090Z,4.50
2024-04-23T17:55:46.637Z,5.10
2024-04-23T17:58:35.476Z,4.80
2024-04-23T18:01:23.578Z,9.40
2024-04-23T18:04:11.372Z,10.40
2024-04-23T18:06:59.275Z,11.30
2024-04-23T18:09:46.917Z,11.10
2024-04-23T18:12:35.235Z,9.70
2024-04-23T18:15:22.990Z,8.70
2024-04-23T18:18:11.099Z,11.40
2024-04-23T18:21:00.699Z,11.40
2024-04-23T18:23:49.745Z,9.10
2024-04-23T18:26:37.994Z,8.80
2024-04-23T18:29:25.923Z,11.00
2024-04-23T18:32:15.298Z,8.80
2024-04-23T18:35:03.393Z,9.30
2024-04-23T18:37:51.734Z,8.60
2024-04-23T18:40:39.685Z,9.30
2024-04-23T18:43:28.762Z,6.40
2024-04-23T18:46:17.779Z,6.60
2024-04-23T18:49:06.374Z,6.30
2024-04-23T18:51:54.301Z,5.40
2024-04-23T18:54:44.703Z,6.00
2024-04-23T18:57:33.255Z,6.70
2024-04-23T19:00:21.222Z,7.60
2024-04-23T19:03:11.624Z,9.30
2024-04-23T19:06:15.250Z,7.70
2024-04-23T19:09:03.331Z,6.50
2024-04-23T19:11:51.116Z,7.90
2024-04-23T19:14:38.996Z,9.50
2024-04-23T19:17:28.115Z,9.10
2024-04-23T19:20:17.005Z,9.70
2024-04-23T19:23:04.678Z,9.20
2024-04-23T19:25:52.726Z,8.80
2024-04-23T19:28:40.304Z,8.50
2024-04-23T19:31:28.359Z,7.70
2024-04-23T19:34:17.339Z,9.50
2024-04-23T19:37:05.569Z,7.30
2024-04-23T19:39:57.743Z,7.10
2024-04-23T19:42:45.540Z,7.80
2024-04-23T19:45:34.469Z,6.30
2024-04-23T19:48:22.447Z,6.10
2024-04-23T19:51:15.138Z,6.10
2024-04-23T19:54:02.977Z,7.30
2024-04-23T19:56:50.983Z,8.10
2024-04-23T19:59:39.643Z,11.10
2024-04-23T20:02:27.566Z,14.90
2024-04-23T20:05:17.894Z,18.60
2024-04-23T20:08:05.917Z,17.60
2024-04-23T20:10:54.309Z,21.50
2024-04-23T20:13:42.583Z,16.70
2024-04-23T20:16:30.321Z,12.10
2024-04-23T20:19:18.292Z,11.70
2024-04-23T20:22:08.597Z,8.80
2024-04-23T20:24:57.146Z,8.40
2024-04-23T20:27:45.085Z,9.20
2024-04-23T20:30:33.118Z,9.20
2024-04-23T20:33:21.141Z,10.50
2024-04-23T20:36:10.097Z,14.20
2024-04-23T20:38:57.483Z,15.20
2024-04-23T20:41:45.605Z,14.50
2024-04-23T20:44:33.740Z,14.60
2024-04-23T20:47:21.596Z,13.20
2024-04-23T20:50:10.253Z,11.80
2024-04-23T20:52:58.505Z,12.60
2024-04-23T20:55:46.751Z,10.40
2024-04-23T20:58:34.924Z,10.20
2024-04-23T21:01:22.996Z,9.80
2024-04-23T21:04:13.979Z,9.30
2024-04-23T21:07:02.127Z,9.60
2024-04-23T21:09:50.163Z,9.20
2024-04-23T21:12:37.699Z,9.30
2024-04-23T21:15:25.567Z,9.10
2024-04-23T21:18:13.482Z,8.80
2024-04-23T21:21:01.140Z,9.10
2024-04-23T21:23:48.770Z,10.00
2024-04-23T21:26:36.718Z,9.00
2024-04-23T21:29:24.667Z,9.90
2024-04-23T21:32:12.674Z,9.30
2024-04-23T21:35:00.840Z,9.00
2024-04-23T21:37:49.315Z,10.20
2024-04-23T21:40:37.127Z,12.30
2024-04-23T21:43:24.862Z,11.80
2024-04-23T21:46:15.706Z,11.30
2024-04-23T21:49:03.481Z,11.70
2024-04-23T21:52:15.693Z,9.80
2024-04-23T21:54:59.756Z,10.80
2024-04-23T21:57:47.715Z,9.90
2024-04-23T22:00:35.624Z,9.50
2024-04-23T22:03:23.453Z,9.90
2024-04-23T22:06:11.967Z,10.80
2024-04-23T22:08:59.890Z,10.40
2024-04-23T22:11:47.868Z,9.60
2024-04-23T22:14:35.799Z,9.90
2024-04-23T22:17:23.880Z,9.30
2024-04-23T22:20:12.076Z,12.50
2024-04-23T22:23:00.162Z,13.00
2024-04-23T22:25:48.041Z,12.30
2024-04-23T22:28:35.924Z,13.50
2024-04-23T22:31:23.847Z,12.60
2024-04-23T22:34:11.474Z,11.90
2024-04-23T22:36:59.472Z,11.60
2024-04-23T22:39:48.138Z,13.70
2024-04-23T22:42:40.605Z,12.00
2024-04-23T22:45:29.645Z,12.40
2024-04-23T22:48:17.542Z,10.60
2024-04-23T22:51:05.774Z,12.40
2024-04-23T22:53:53.866Z,11.80
2024-04-23T22:56:42.148Z,11.80
2024-04-23T22:59:30.017Z,14.80
2024-04-23T23:02:17.808Z,16.30
2024-04-23T23:05:06.473Z,19.10
2024-04-23T23:07:54.279Z,14.60
2024-04-23T23:10:42.031Z,12.40
2024-04-23T23:13:30.313Z,10.50
2024-04-23T23:16:18.172Z,11.20
2024-04-23T23:19:05.911Z,10.40
2024-04-23T23:21:53.395Z,11.00
2024-04-23T23:24:41.365Z,10.50
2024-04-23T23:27:31.013Z,10.70
2024-04-23T23:30:19.029Z,10.40
2024-04-23T23:33:07.260Z,9.70
2024-04-23T23:35:55.225Z,10.10
2024-04-23T23:38:43.212Z,9.80
2024-04-23T23:41:31.722Z,9.70
2024-04-23T23:44:19.907Z,9.40
2024-04-23T23:47:07.781Z,9.20
2024-04-23T23:49:55.505Z,10.60
2024-04-23T23:52:43.304Z,9.70
2024-04-23T23:55:31.250Z,9.70
2024-04-23T23:58:19.134Z,9.30
